createdAt,value
2023-04-21T00:00:08.911Z,14.20
2023-04-21T00:02:56.095Z,14.45
2023-04-21T00:05:23.686Z,12.52
2023-04-21T00:07:50.653Z,12.52
2023-04-21T00:10:18.330Z,14.48
2023-04-21T00:12:45.252Z,11.60
2023-04-21T00:15:12.804Z,17.25
2023-04-21T00:17:40.925Z,12.70
2023-04-21T00:20:10.684Z,14.93
2023-04-21T00:22:37.853Z,12.25
2023-04-21T00:25:05.983Z,11.90
2023-04-21T00:27:32.992Z,10.88
2023-04-21T00:30:00.286Z,11.32
2023-04-21T00:32:27.287Z,11.20
2023-04-21T00:34:54.627Z,11.80
2023-04-21T00:37:21.591Z,14.13
2023-04-21T00:39:48.802Z,11.65
2023-04-21T00:42:17.204Z,13.63
2023-04-21T00:44:44.465Z,10.05
2023-04-21T00:47:11.708Z,13.50
2023-04-21T00:49:39.206Z,14.10
2023-04-21T00:52:06.675Z,15.13
2023-04-21T00:54:35.894Z,12.00
2023-04-21T00:57:03.795Z,10.95
2023-04-21T00:59:31.485Z,11.63
2023-04-21T01:01:58.637Z,14.23
2023-04-21T01:04:26.060Z,12.48
2023-04-21T01:06:53.061Z,11.32
2023-04-21T01:09:21.713Z,11.27
2023-04-21T01:12:05.834Z,12.90
2023-04-21T01:14:33.184Z,12.85
2023-04-21T01:17:00.451Z,10.63
2023-04-21T01:19:32.502Z,12.60
2023-04-21T01:22:00.987Z,14.00
2023-04-21T01:24:42.869Z,12.65
2023-04-21T01:27:12.017Z,12.13
2023-04-21T01:29:41.506Z,11.02
2023-04-21T01:32:11.581Z,11.77
2023-04-21T01:34:40.599Z,11.45
2023-04-21T01:37:09.698Z,12.20
2023-04-21T01:39:41.652Z,13.00
2023-04-21T01:42:09.150Z,12.95
2023-04-21T01:44:37.054Z,10.70
2023-04-21T01:47:06.170Z,14.70
2023-04-21T01:49:33.430Z,13.88
2023-04-21T01:52:00.572Z,14.93
2023-04-21T01:54:27.858Z,15.52
2023-04-21T01:56:54.882Z,17.85
2023-04-21T01:59:22.425Z,15.40
2023-04-21T02:01:50.054Z,12.30
2023-04-21T02:04:17.650Z,11.55
2023-04-21T02:06:44.895Z,10.07
2023-04-21T02:09:12.097Z,11.20
2023-04-21T02:11:39.034Z,13.40
2023-04-21T02:14:06.300Z,11.48
2023-04-21T02:16:33.348Z,12.38
2023-04-21T02:19:00.698Z,13.40
2023-04-21T02:21:28.125Z,10.73
2023-04-21T02:23:55.584Z,12.05
2023-04-21T02:26:22.538Z,12.25
2023-04-21T02:28:50.414Z,12.50
2023-04-21T02:31:18.855Z,12.27
2023-04-21T02:33:46.392Z,10.43
2023-04-21T02:36:13.792Z,14.13
2023-04-21T02:38:41.329Z,10.73
2023-04-21T02:41:08.426Z,13.40
2023-04-21T02:43:35.923Z,11.15
2023-04-21T02:46:09.473Z,11.02
2023-04-21T02:48:37.053Z,10.43
2023-04-21T02:51:04.818Z,10.75
2023-04-21T02:53:32.321Z,12.48
2023-04-21T02:55:59.485Z,13.65
2023-04-21T02:58:26.798Z,11.20
2023-04-21T03:00:53.789Z,13.70
2023-04-21T03:03:21.845Z,13.02
2023-04-21T03:05:48.950Z,13.05
2023-04-21T03:08:16.670Z,10.43
2023-04-21T03:10:43.771Z,12.30
2023-04-21T03:13:11.078Z,10.82
2023-04-21T03:15:38.045Z,10.68
2023-04-21T03:18:05.397Z,12.13
2023-04-21T03:20:32.416Z,14.82
2023-04-21T03:22:59.697Z,11.38
2023-04-21T03:25:27.876Z,10.93
2023-04-21T03:27:55.529Z,12.18
2023-04-21T03:30:25.690Z,10.63
2023-04-21T03:32:53.379Z,15.55
2023-04-21T03:35:20.472Z,11.05
2023-04-21T03:37:49.679Z,12.48
2023-04-21T03:40:17.031Z,10.63
2023-04-21T03:42:44.337Z,11.73
2023-04-21T03:45:11.516Z,10.80
2023-04-21T03:47:38.949Z,12.52
2023-04-21T03:50:06.716Z,12.18
2023-04-21T03:52:34.161Z,11.13
2023-04-21T03:55:01.549Z,11.40
2023-04-21T03:57:29.106Z,11.05
2023-04-21T03:59:56.103Z,10.98
2023-04-21T04:02:23.726Z,9.00
2023-04-21T04:04:51.133Z,9.57
2023-04-21T04:07:18.633Z,9.07
2023-04-21T04:09:45.710Z,11.85
2023-04-21T04:12:12.998Z,11.88
2023-04-21T04:14:40.056Z,8.95
2023-04-21T04:17:07.539Z,11.75
2023-04-21T04:19:34.546Z,11.63
2023-04-21T04:22:01.869Z,10.80
2023-04-21T04:24:29.688Z,10.77
2023-04-21T04:26:58.163Z,12.52
2023-04-21T04:29:25.655Z,9.05
2023-04-21T04:31:53.033Z,12.23
2023-04-21T04:34:20.060Z,9.05
2023-04-21T04:36:48.274Z,9.85
2023-04-21T04:39:16.498Z,9.32
2023-04-21T04:41:44.123Z,10.32
2023-04-21T04:44:11.343Z,11.45
2023-04-21T04:46:39.478Z,11.65
2023-04-21T04:49:06.697Z,11.57
2023-04-21T04:51:33.948Z,9.45
2023-04-21T04:54:01.155Z,8.45
2023-04-21T04:56:30.483Z,7.90
2023-04-21T04:58:57.465Z,11.05
2023-04-21T05:01:30.343Z,10.65
2023-04-21T05:03:58.129Z,9.05
2023-04-21T05:06:26.105Z,10.88
2023-04-21T05:08:53.149Z,11.63
2023-04-21T05:11:20.708Z,10.07
2023-04-21T05:13:47.642Z,9.05
2023-04-21T05:16:15.071Z,13.13
2023-04-21T05:18:42.133Z,9.48
2023-04-21T05:21:09.440Z,8.57
2023-04-21T05:23:36.559Z,10.20
2023-04-21T05:26:04.623Z,7.80
2023-04-21T05:28:32.244Z,6.90
2023-04-21T05:30:59.459Z,7.50
2023-04-21T05:33:27.030Z,7.43
2023-04-21T05:35:54.382Z,6.70
2023-04-21T05:38:21.304Z,9.13
2023-04-21T05:40:55.888Z,7.45
2023-04-21T05:43:23.287Z,7.15
2023-04-21T05:45:50.649Z,8.07
2023-04-21T05:48:17.716Z,8.15
2023-04-21T05:50:45.057Z,7.28
2023-04-21T05:53:12.165Z,6.72
2023-04-21T05:55:39.508Z,8.40
2023-04-21T05:58:06.560Z,7.13
2023-04-21T06:00:34.401Z,7.75
2023-04-21T06:03:01.630Z,8.65
2023-04-21T06:05:29.206Z,8.75
2023-04-21T06:07:56.215Z,6.38
2023-04-21T06:10:23.549Z,7.07
2023-04-21T06:12:50.591Z,7.60
2023-04-21T06:15:18.204Z,8.52
2023-04-21T06:17:45.344Z,6.43
2023-04-21T06:20:12.950Z,7.03
2023-04-21T06:22:40.040Z,7.35
2023-04-21T06:25:07.720Z,6.20
2023-04-21T06:27:34.718Z,7.45
2023-04-21T06:30:02.365Z,11.85
2023-04-21T06:32:29.675Z,6.03
2023-04-21T06:34:57.160Z,5.50
2023-04-21T06:37:24.115Z,8.90
2023-04-21T06:39:51.421Z,8.27
2023-04-21T06:42:18.466Z,4.78
2023-04-21T06:44:46.694Z,6.05
2023-04-21T06:47:16.966Z,5.35
2023-04-21T06:49:44.260Z,5.55
2023-04-21T06:52:13.946Z,8.18
2023-04-21T06:54:41.426Z,6.38
2023-04-21T06:57:08.442Z,6.57
2023-04-21T06:59:35.692Z,6.18
2023-04-21T07:02:02.848Z,8.50
2023-04-21T07:04:32.405Z,4.95
2023-04-21T07:07:01.668Z,6.53
2023-04-21T07:09:30.912Z,5.22
2023-04-21T07:11:58.716Z,5.13
2023-04-21T07:14:26.172Z,7.35
2023-04-21T07:16:53.355Z,6.30
2023-04-21T07:19:20.894Z,4.78
2023-04-21T07:21:48.394Z,8.85
2023-04-21T07:24:16.035Z,4.90
2023-04-21T07:26:42.980Z,5.55
2023-04-21T07:29:10.209Z,4.75
2023-04-21T07:31:37.351Z,6.50
2023-04-21T07:34:04.640Z,11.63
2023-04-21T07:36:31.741Z,5.25
2023-04-21T07:38:59.484Z,5.57
2023-04-21T07:41:26.449Z,6.40
2023-04-21T07:43:53.939Z,5.78
2023-04-21T07:46:22.950Z,4.05
2023-04-21T07:48:50.961Z,3.60
2023-04-21T07:51:18.108Z,3.60
2023-04-21T07:53:45.439Z,6.25
2023-04-21T07:56:13.150Z,6.80
2023-04-21T07:58:40.710Z,4.80
2023-04-21T08:01:07.765Z,6.53
2023-04-21T08:03:35.089Z,3.75
2023-04-21T08:06:02.677Z,6.20
2023-04-21T08:08:31.954Z,3.00
2023-04-21T08:10:59.147Z,4.53
2023-04-21T08:13:26.698Z,5.28
2023-04-21T08:15:53.860Z,4.10
2023-04-21T08:18:22.752Z,5.43
2023-04-21T08:20:50.028Z,7.85
2023-04-21T08:23:17.387Z,6.03
2023-04-21T08:25:44.409Z,6.82
2023-04-21T08:28:11.792Z,7.32
2023-04-21T08:30:39.367Z,3.88
2023-04-21T08:33:08.581Z,4.35
2023-04-21T08:35:36.493Z,5.60
2023-04-21T08:38:03.895Z,5.28
2023-04-21T08:40:35.928Z,6.60
2023-04-21T08:43:04.346Z,2.65
2023-04-21T08:45:32.112Z,3.10
2023-04-21T08:48:01.651Z,3.05
2023-04-21T08:50:30.088Z,4.50
2023-04-21T08:52:58.212Z,4.47
2023-04-21T08:55:32.707Z,2.60
2023-04-21T08:58:00.046Z,3.28
2023-04-21T09:00:27.011Z,4.63
2023-04-21T09:03:01.749Z,4.88
2023-04-21T09:05:31.899Z,4.03
2023-04-21T09:08:09.451Z,3.95
2023-04-21T09:10:50.562Z,4.22
2023-04-21T09:13:20.287Z,4.22
2023-04-21T09:15:50.718Z,3.70
2023-04-21T09:18:23.660Z,3.78
2023-04-21T09:21:06.432Z,3.28
2023-04-21T09:23:50.362Z,7.20
2023-04-21T09:26:19.658Z,3.50
2023-04-21T09:28:48.759Z,2.67
2023-04-21T09:31:20.269Z,3.40
2023-04-21T09:36:22.370Z,4.20
2023-04-21T09:39:12.968Z,5.47
2023-04-21T09:41:44.292Z,3.90
2023-04-21T09:44:12.146Z,3.42
2023-04-21T09:46:43.632Z,2.97
2023-04-21T09:49:13.804Z,2.53
2023-04-21T09:56:53.039Z,2.10
2023-04-21T09:59:25.199Z,4.22
2023-04-21T10:01:53.939Z,2.95
2023-04-21T10:04:25.280Z,2.28
2023-04-21T10:06:53.453Z,2.33
2023-04-21T10:09:24.000Z,3.63
2023-04-21T10:11:53.080Z,2.28
2023-04-21T10:14:21.127Z,5.60
2023-04-21T10:17:03.401Z,2.67
2023-04-21T10:19:35.628Z,2.72
2023-04-21T10:22:02.701Z,2.67
2023-04-21T10:24:31.267Z,2.22
2023-04-21T10:27:04.659Z,3.38
2023-04-21T10:29:47.917Z,3.03
2023-04-21T10:32:48.416Z,3.75
2023-04-21T10:35:22.856Z,2.42
2023-04-21T10:37:52.063Z,2.95
2023-04-21T10:40:43.157Z,3.85
2023-04-21T10:43:46.595Z,2.67
2023-04-21T10:46:38.987Z,3.08
2023-04-21T10:49:10.774Z,2.75
2023-04-21T10:52:00.161Z,2.77
2023-04-21T10:54:29.618Z,5.50
2023-04-21T10:56:58.924Z,2.60
2023-04-21T10:59:27.180Z,3.28
2023-04-21T11:01:55.237Z,2.80
2023-04-21T11:04:23.479Z,2.78
2023-04-21T11:07:16.994Z,2.85
2023-04-21T11:09:46.405Z,3.33
2023-04-21T11:12:18.434Z,1.83
2023-04-21T11:14:48.251Z,3.20
2023-04-21T11:17:18.107Z,3.75
2023-04-21T11:19:54.268Z,2.00
2023-04-21T11:22:23.843Z,2.72
2023-04-21T11:24:56.169Z,1.65
2023-04-21T11:27:26.036Z,2.25
2023-04-21T11:29:53.008Z,2.17
2023-04-21T11:32:21.222Z,2.25
2023-04-21T11:34:48.379Z,3.40
2023-04-21T11:37:22.094Z,4.50
2023-04-21T11:39:49.137Z,2.00
2023-04-21T11:42:22.893Z,4.13
2023-04-21T11:44:49.990Z,4.95
2023-04-21T11:47:24.718Z,5.10
2023-04-21T11:49:57.245Z,2.40
2023-04-21T11:52:29.628Z,2.78
2023-04-21T11:55:05.389Z,2.97
2023-04-21T11:57:33.802Z,2.25
2023-04-21T12:00:02.671Z,3.30
2023-04-21T12:02:31.815Z,2.67
2023-04-21T12:05:10.622Z,2.72
2023-04-21T12:07:42.158Z,3.78
2023-04-21T12:10:18.185Z,2.22
2023-04-21T12:12:46.458Z,2.13
2023-04-21T12:15:20.284Z,2.33
2023-04-21T12:17:50.949Z,2.63
2023-04-21T12:20:31.061Z,2.20
2023-04-21T12:22:58.712Z,2.80
2023-04-21T12:25:26.353Z,3.10
2023-04-21T12:27:58.658Z,2.28
2023-04-21T12:30:25.895Z,3.55
2023-04-21T12:32:55.909Z,3.42
2023-04-21T12:35:23.825Z,3.65
2023-04-21T12:37:52.050Z,2.58
2023-04-21T12:40:19.613Z,3.95
2023-04-21T12:42:48.695Z,3.00
2023-04-21T12:45:15.886Z,2.15
2023-04-21T12:47:45.539Z,2.08
2023-04-21T12:50:14.293Z,2.35
2023-04-21T12:52:41.838Z,5.65
2023-04-21T12:55:09.337Z,2.95
2023-04-21T12:57:36.905Z,5.13
2023-04-21T13:00:04.455Z,2.92
2023-04-21T13:02:37.299Z,3.28
2023-04-21T13:05:07.515Z,3.03
2023-04-21T13:07:34.828Z,3.00
2023-04-21T13:10:02.847Z,4.88
2023-04-21T13:12:30.513Z,5.60
2023-04-21T13:14:57.477Z,3.17
2023-04-21T13:17:24.975Z,4.47
2023-04-21T13:19:53.172Z,3.92
2023-04-21T13:22:20.823Z,2.50
2023-04-21T13:24:48.105Z,2.67
2023-04-21T13:27:15.412Z,1.90
2023-04-21T13:29:42.616Z,2.30
2023-04-21T13:32:10.332Z,2.50
2023-04-21T13:34:37.424Z,7.30
2023-04-21T13:37:05.273Z,3.15
2023-04-21T13:39:32.535Z,2.53
2023-04-21T13:42:01.601Z,3.67
2023-04-21T13:44:28.951Z,2.67
2023-04-21T13:46:57.442Z,1.85
2023-04-21T13:49:24.553Z,3.55
2023-04-21T13:51:51.766Z,4.57
2023-04-21T13:54:19.109Z,3.00
2023-04-21T13:56:46.592Z,2.30
2023-04-21T13:59:14.955Z,3.95
2023-04-21T14:01:42.769Z,2.30
2023-04-21T14:04:10.106Z,3.22
2023-04-21T14:06:38.525Z,2.83
2023-04-21T14:09:06.466Z,3.13
2023-04-21T14:11:34.262Z,2.63
2023-04-21T14:14:09.437Z,2.67
2023-04-21T14:16:38.355Z,2.30
2023-04-21T14:19:06.217Z,2.90
2023-04-21T14:21:33.962Z,2.65
2023-04-21T14:24:01.063Z,7.25
2023-04-21T14:26:28.789Z,2.10
2023-04-21T14:28:56.561Z,5.30
2023-04-21T14:31:24.110Z,14.30
2023-04-21T14:33:51.145Z,2.92
2023-04-21T14:36:18.822Z,6.32
2023-04-21T14:38:45.914Z,4.15
2023-04-21T14:41:13.446Z,3.05
2023-04-21T14:43:40.518Z,2.33
2023-04-21T14:46:10.513Z,1.75
2023-04-21T14:48:37.590Z,4.05
2023-04-21T14:51:09.292Z,2.50
2023-04-21T14:53:36.425Z,2.60
2023-04-21T14:56:03.963Z,4.55
2023-04-21T14:58:31.006Z,2.53
2023-04-21T15:00:58.549Z,3.17
2023-04-21T15:03:26.396Z,2.00
2023-04-21T15:05:54.122Z,4.35
2023-04-21T15:08:21.227Z,3.03
2023-04-21T15:10:48.662Z,3.50
2023-04-21T15:13:15.724Z,2.03
2023-04-21T15:15:43.233Z,2.15
2023-04-21T15:18:10.293Z,4.47
2023-04-21T15:20:44.712Z,1.70
2023-04-21T15:23:13.345Z,3.65
2023-04-21T15:25:40.934Z,3.47
2023-04-21T15:28:08.782Z,3.40
2023-04-21T15:30:36.491Z,3.17
2023-04-21T15:33:03.638Z,2.92
2023-04-21T15:35:31.345Z,3.47
2023-04-21T15:37:58.394Z,4.70
2023-04-21T15:40:26.084Z,2.65
2023-04-21T15:42:53.220Z,3.25
2023-04-21T15:45:20.888Z,2.70
2023-04-21T15:47:47.941Z,5.80
2023-04-21T15:50:16.026Z,3.08
2023-04-21T15:52:43.566Z,3.00
2023-04-21T15:55:12.145Z,3.88
2023-04-21T15:57:39.230Z,3.70
2023-04-21T16:00:10.279Z,2.22
2023-04-21T16:02:37.770Z,4.88
2023-04-21T16:05:06.279Z,4.32
2023-04-21T16:07:33.662Z,2.92
2023-04-21T16:10:01.127Z,2.97
2023-04-21T16:12:28.670Z,3.08
2023-04-21T16:15:04.015Z,2.33
2023-04-21T16:17:36.868Z,2.80
2023-04-21T16:20:05.656Z,3.13
2023-04-21T16:22:32.746Z,2.67
2023-04-21T16:25:00.731Z,3.53
2023-04-21T16:27:27.967Z,2.58
2023-04-21T16:29:55.370Z,3.58
2023-04-21T16:32:22.512Z,3.17
2023-04-21T16:34:50.264Z,8.68
2023-04-21T16:37:17.706Z,4.55
2023-04-21T16:39:46.111Z,4.78
2023-04-21T16:42:13.317Z,3.38
2023-04-21T16:44:41.110Z,4.72
2023-04-21T16:47:08.355Z,2.67
2023-04-21T16:49:35.722Z,1.38
2023-04-21T16:52:02.824Z,4.28
2023-04-21T16:54:30.446Z,3.85
2023-04-21T16:56:57.680Z,2.72
2023-04-21T16:59:25.154Z,3.30
2023-04-21T17:01:52.383Z,6.28
2023-04-21T17:04:19.789Z,4.97
2023-04-21T17:06:48.299Z,3.28
2023-04-21T17:09:16.153Z,3.28
2023-04-21T17:11:43.864Z,3.10
2023-04-21T17:14:12.677Z,4.47
2023-04-21T17:16:40.343Z,3.47
2023-04-21T17:19:07.998Z,6.10
2023-04-21T17:21:35.114Z,3.33
2023-04-21T17:24:02.328Z,2.85
2023-04-21T17:26:29.344Z,1.98
2023-04-21T17:28:57.549Z,5.60
2023-04-21T17:31:24.678Z,3.25
2023-04-21T17:33:53.323Z,2.63
2023-04-21T17:36:20.572Z,4.40
2023-04-21T17:38:47.871Z,4.20
2023-04-21T17:41:14.845Z,3.75
2023-04-21T17:43:42.210Z,4.35
2023-04-21T17:46:09.270Z,4.80
2023-04-21T17:48:37.641Z,5.28
2023-04-21T17:51:05.765Z,6.55
2023-04-21T17:53:33.089Z,4.28
2023-04-21T17:56:00.156Z,3.50
2023-04-21T17:58:27.743Z,4.53
2023-04-21T18:00:55.135Z,5.43
2023-04-21T18:03:22.937Z,3.75
2023-04-21T18:05:50.493Z,5.90
2023-04-21T18:08:17.875Z,5.28
2023-04-21T18:10:44.882Z,5.65
2023-04-21T18:13:12.190Z,7.38
2023-04-21T18:15:39.903Z,5.78
2023-04-21T18:18:07.931Z,9.32
2023-04-21T18:20:35.220Z,9.80
2023-04-21T18:23:03.051Z,9.05
2023-04-21T18:25:41.543Z,6.50
2023-04-21T18:28:14.326Z,5.03
2023-04-21T18:30:41.834Z,6.47
2023-04-21T18:33:12.192Z,7.85
2023-04-21T18:35:41.265Z,12.57
2023-04-21T18:38:10.564Z,9.32
2023-04-21T18:40:37.942Z,7.28
2023-04-21T18:43:05.593Z,7.78
2023-04-21T18:45:33.949Z,22.60
2023-04-21T18:48:01.841Z,14.43
2023-04-21T18:50:29.402Z,32.72
2023-04-21T18:52:58.312Z,13.73
2023-04-21T18:55:25.307Z,9.90
2023-04-21T18:57:52.610Z,17.45
2023-04-21T19:00:19.866Z,45.60
2023-04-21T19:02:49.070Z,41.25
2023-04-21T19:05:16.397Z,42.97
2023-04-21T19:07:44.065Z,46.95
2023-04-21T19:10:11.184Z,30.83
2023-04-21T19:12:38.793Z,27.92
2023-04-21T19:15:06.378Z,29.38
2023-04-21T19:17:33.652Z,30.38
2023-04-21T19:20:00.684Z,35.25
2023-04-21T19:22:31.071Z,32.00
2023-04-21T19:24:58.229Z,43.50
2023-04-21T19:27:25.587Z,21.25
2023-04-21T19:29:52.603Z,14.13
2023-04-21T19:32:20.001Z,19.58
2023-04-21T19:34:47.091Z,17.80
2023-04-21T19:37:15.020Z,27.92
2023-04-21T19:39:42.160Z,32.67
2023-04-21T19:42:09.662Z,69.38
2023-04-21T19:44:38.157Z,54.05
2023-04-21T19:47:06.051Z,63.28
2023-04-21T19:49:33.052Z,38.20
2023-04-21T19:52:00.915Z,45.90
2023-04-21T19:54:27.856Z,79.15
2023-04-21T19:56:55.654Z,87.05
2023-04-21T19:59:22.701Z,74.30
2023-04-21T20:01:50.004Z,69.13
2023-04-21T20:04:17.294Z,70.40
2023-04-21T20:06:44.885Z,74.90
2023-04-21T20:09:12.198Z,74.40
2023-04-21T20:11:39.509Z,80.43
2023-04-21T20:14:06.483Z,69.22
2023-04-21T20:16:34.523Z,93.95
2023-04-21T20:19:01.736Z,105.75
2023-04-21T20:21:29.107Z,101.43
2023-04-21T20:23:56.182Z,45.30
2023-04-21T20:26:23.438Z,16.98
2023-04-21T20:28:50.640Z,12.38
2023-04-21T20:31:19.103Z,20.58
2023-04-21T20:33:46.284Z,14.68
2023-04-21T20:36:13.534Z,18.92
2023-04-21T20:38:40.622Z,17.45
2023-04-21T20:41:08.890Z,16.77
2023-04-21T20:43:35.883Z,14.95
2023-04-21T20:46:03.482Z,11.85
2023-04-21T20:48:30.692Z,14.98
2023-04-21T20:50:57.994Z,18.05
2023-04-21T20:53:26.208Z,20.83
2023-04-21T20:55:53.500Z,20.63
2023-04-21T20:58:20.641Z,24.45
2023-04-21T21:00:47.933Z,36.50
2023-04-21T21:03:15.145Z,23.08
2023-04-21T21:05:42.580Z,16.08
2023-04-21T21:08:09.693Z,14.75
2023-04-21T21:10:37.301Z,14.40
2023-04-21T21:13:04.294Z,13.45
2023-04-21T21:15:31.664Z,18.63
2023-04-21T21:17:58.889Z,21.95
2023-04-21T21:20:26.259Z,22.50
2023-04-21T21:22:53.381Z,23.98
2023-04-21T21:25:21.139Z,20.73
2023-04-21T21:27:48.251Z,18.23
2023-04-21T21:30:15.620Z,13.32
2023-04-21T21:32:42.719Z,22.17
2023-04-21T21:35:10.433Z,13.30
2023-04-21T21:37:38.215Z,15.05
2023-04-21T21:40:06.591Z,13.50
2023-04-21T21:42:33.573Z,15.05
2023-04-21T21:45:01.126Z,13.50
2023-04-21T21:47:28.313Z,15.50
2023-04-21T21:49:58.673Z,14.38
2023-04-21T21:52:26.601Z,13.57
2023-04-21T21:54:54.057Z,14.63
2023-04-21T21:57:24.487Z,12.32
2023-04-21T21:59:51.844Z,12.88
2023-04-21T22:02:18.877Z,10.60
2023-04-21T22:04:46.324Z,11.63
2023-04-21T22:07:14.000Z,12.10
2023-04-21T22:09:41.668Z,13.15
2023-04-21T22:12:09.017Z,11.82
2023-04-21T22:14:36.726Z,12.68
2023-04-21T22:17:03.730Z,12.50
2023-04-21T22:19:31.188Z,15.77
2023-04-21T22:21:58.384Z,9.45
2023-04-21T22:24:25.962Z,20.08
2023-04-21T22:26:53.315Z,12.98
2023-04-21T22:29:21.285Z,9.80
2023-04-21T22:31:48.578Z,12.40
2023-04-21T22:34:16.879Z,15.82
2023-04-21T22:36:43.864Z,10.68
2023-04-21T22:39:11.748Z,12.63
2023-04-21T22:41:39.277Z,12.80
2023-04-21T22:44:06.583Z,12.48
2023-04-21T22:46:33.936Z,17.25
2023-04-21T22:49:02.710Z,9.48
2023-04-21T22:51:32.525Z,11.30
2023-04-21T22:54:00.616Z,8.80
2023-04-21T22:56:28.423Z,9.85
2023-04-21T22:58:56.070Z,12.25
2023-04-21T23:01:23.308Z,12.73
2023-04-21T23:03:50.820Z,11.85
2023-04-21T23:06:17.950Z,12.10
2023-04-21T23:08:45.444Z,10.27
2023-04-21T23:11:12.991Z,14.60
2023-04-21T23:13:40.607Z,10.25
2023-04-21T23:16:07.755Z,16.90
2023-04-21T23:18:35.929Z,11.40
2023-04-21T23:21:03.097Z,10.63
2023-04-21T23:23:30.444Z,13.73
2023-04-21T23:25:57.488Z,14.20
2023-04-21T23:28:24.798Z,11.32
2023-04-21T23:30:51.935Z,16.08
2023-04-21T23:33:19.325Z,9.82
2023-04-21T23:35:46.403Z,13.48
2023-04-21T23:38:13.907Z,11.93
2023-04-21T23:40:41.336Z,10.82
2023-04-21T23:43:08.985Z,13.13
2023-04-21T23:45:36.397Z,9.88
2023-04-21T23:48:03.861Z,12.85
2023-04-21T23:50:31.079Z,11.63
2023-04-21T23:52:58.412Z,15.80
2023-04-21T23:55:25.393Z,10.70
2023-04-21T23:57:52.740Z,11.38
